Latest Weather Observations for TFS B

IDT60801

Issued at 11:11 am EDT Thursday 23 January 2020 (issued every 10 minutes, with the page automatically refreshed every 10 minutes)

About weather observations | Map of weather stations | Latest weather observations for TAS | Other Formats
Station Details ID: 250090 Name: TAS FIRE SERVICE PORTABLE B Lat: -41.54 Lon: 147.88 Height: 626.0 m

Portable automatic weather stations (PAWS) are operated by other organisations, such as Fire and Emergency Services, and are included here by agreement. Portable stations may be deployed to a location for a short period and their location may be subject to change without notice. Wind observations from these stations are provided from heights of either three (3) or ten (10) metres above ground level (AGL).

Data from the previous 72 hours. | See also: Recent months for locations in Tasmania
Date/Time
EDT
Temp
°C
App
Temp
°C
Dew
Point
°C
Rel
Hum
%
Delta-T
°C
Wind Press
QNH
hPa
Press
MSL
hPa
Rain since
9am
mm
Dir  Spd
km/h
Gust
km/h
Spd
kts
Gust
kts
23/11:00am 10.1 8.5 8.9 92 0.6 NNW 7 13 4 7 - - 0.6
23/10:50am 9.8 8.3 8.5 92 0.7 NNE 6 9 3 5 - - 0.6
23/10:40am 9.6 8.2 8.9 95 0.4 NNE 6 7 3 4 - - 0.6
23/10:30am 9.7 8.2 9.0 95 0.4 NNE 7 9 4 5 - - 0.6
23/10:20am 9.7 8.1 8.7 93 0.5 NNE 7 11 4 6 - - 0.6
23/10:10am 9.8 8.4 8.9 94 0.5 N 6 9 3 5 - - 0.2
23/10:00am 9.8 8.4 8.8 93 0.5 N 6 9 3 5 - - 15.8
23/09:50am 9.8 8.2 8.8 93 0.5 N 7 11 4 6 - - 15.4
23/09:40am 10.0 8.0 8.7 92 0.7 N 9 13 5 7 - - 15.2
23/09:30am 10.4 8.3 8.3 87 1.1 NNW 9 13 5 7 - - 14.8
23/09:20am 10.6 7.6 7.9 83 1.4 NW 13 22 7 12 - - 14.4
23/09:10am 10.5 8.3 8.0 84 1.3 NW 9 17 5 9 - - 14.0
23/09:00am 10.4 7.9 8.0 85 1.2 WNW 11 19 6 10 - - 13.6
23/08:50am 10.4 8.4 8.6 89 0.9 N 9 13 5 7 - - 13.2
23/08:40am 10.6 8.5 8.3 86 1.2 N 9 15 5 8 - - 12.8
23/08:30am 10.7 8.3 8.7 87 1.0 N 11 17 6 9 - - 12.4
23/08:20am 10.7 8.3 8.8 88 1.0 N 11 15 6 8 - - 12.2
23/08:10am 10.7 9.3 9.4 92 0.7 N 7 9 4 5 - - 12.0
23/08:00am 10.8 9.5 9.8 93 0.5 N 7 9 4 5 - - 11.8
23/07:50am 10.9 8.7 9.3 90 0.8 N 11 15 6 8 - - 11.6
23/07:40am 11.0 9.2 9.5 90 0.8 NNE 9 13 5 7 - - 11.4
23/07:30am 11.0 9.5 9.2 89 0.9 NNE 7 13 4 7 - - 11.0
23/07:20am 11.0 9.2 9.4 90 0.8 N 9 13 5 7 - - 10.8
23/07:10am 10.8 9.0 9.5 92 0.7 NNE 9 15 5 8 - - 10.4
23/07:00am 10.9 9.5 9.5 91 0.7 NNE 7 11 4 6 - - 10.0
23/06:50am 11.1 9.7 9.7 91 0.7 NNW 7 9 4 5 - - 9.6
23/06:40am 11.1 9.6 9.2 88 1.0 NW 7 9 4 5 - - 9.2
23/06:30am 10.9 9.7 9.5 91 0.7 W 6 9 3 5 - - 8.6
23/06:20am 10.7 9.6 9.8 94 0.5 N 6 9 3 5 - - 7.4
23/06:10am 11.0 9.7 9.8 92 0.6 NNE 7 9 4 5 - - 6.2
23/06:00am 11.1 10.0 9.9 92 0.6 NE 6 9 3 5 - - 5.4
23/05:50am 11.0 9.9 9.9 93 0.6 NNE 6 11 3 6 - - 5.2
23/05:40am 11.0 10.0 10.3 95 0.4 N 6 9 3 5 - - 5.0
23/05:30am 11.2 10.3 10.7 97 0.3 NE 6 6 3 3 - - 4.4
23/05:20am 11.4 10.5 10.6 95 0.4 NE 6 13 3 7 - - 4.0
23/05:10am 11.7 10.9 11.0 95 0.4 NNE 6 7 3 4 - - 3.6
23/05:00am 12.0 11.2 11.0 94 0.5 N 6 7 3 4 - - 3.2
23/04:50am 12.2 11.4 11.1 93 0.6 NNE 6 11 3 6 - - 2.6
23/04:40am 12.4 12.1 11.3 93 0.6 N 4 7 2 4 - - 2.0
23/04:30am 12.5 12.2 11.5 94 0.5 NE 4 6 2 3 - - 1.8
23/04:20am 12.7 12.6 12.0 95 0.4 NNE 4 6 2 3 - - 1.4
23/04:10am 13.0 12.4 11.8 92 0.7 N 6 9 3 5 - - 1.2
23/04:00am 13.3 12.9 12.3 94 0.6 NNE 6 11 3 6 - - 1.2
23/03:50am 13.8 13.2 12.2 90 0.9 NNW 7 11 4 6 - - 0.8
23/03:40am 13.8 13.4 12.4 91 0.8 NNE 6 9 3 5 - - 0.6
23/03:30am 13.9 13.6 12.7 92 0.7 NNE 6 7 3 4 - - 0.4
23/03:20am 14.2 14.3 12.6 90 0.9 NNE 4 6 2 3 - - 0.2
23/03:10am 14.4 14.9 12.9 91 0.9 N 2 6 1 3 - - 0.2
23/03:00am 14.8 14.5 12.8 88 1.1 NE 6 7 3 4 - - 0.0
23/02:50am 15.4 15.1 12.8 84 1.5 NNE 6 7 3 4 - - 0.0
23/02:40am 15.7 15.2 12.2 80 2.0 N 6 7 3 4 - - 0.0
23/02:30am 16.0 15.6 12.4 79 2.0 NNE 6 9 3 5 - - 0.0
23/02:20am 16.5 16.4 12.1 75 2.5 NNE 4 6 2 3 - - 0.0
23/02:10am 16.7 15.9 11.7 72 2.8 N 7 11 4 6 - - 0.0
23/02:00am 16.7 16.0 11.4 71 3.0 N 6 11 3 6 - - 0.0
23/01:50am 16.9 16.3 11.8 72 2.9 NNW 6 9 3 5 - - 0.0
23/01:40am 17.3 16.4 11.3 68 3.4 N 7 11 4 6 - - 0.0
23/01:30am 17.4 16.4 11.1 66 3.5 NNW 7 13 4 7 - - 0.0
23/01:20am 17.5 16.2 11.1 66 3.6 NW 9 11 5 6 - - 0.0
23/01:10am 17.6 15.5 11.1 65 3.6 NW 13 17 7 9 - - 0.0
23/01:00am 17.7 15.2 10.9 64 3.8 NW 15 19 8 10 - - 0.0
23/12:50am 17.4 15.2 10.8 65 3.7 NW 13 17 7 9 - - 0.0
23/12:40am 17.2 15.0 10.7 65 3.6 NW 13 17 7 9 - - 0.0
23/12:30am 17.1 15.2 10.6 65 3.6 NW 11 15 6 8 - - 0.0
23/12:20am 17.2 15.7 10.4 64 3.7 NW 9 11 5 6 - - 0.0
23/12:10am 17.5 15.9 10.3 62 4.0 NNW 9 11 5 6 - - 0.0
23/12:00am 17.8 15.7 9.9 60 4.3 NNW 11 19 6 10 - - 0.0
 
Date/Time
EDT
Temp
°C
App
Temp
°C
Dew
Point
°C
Rel
Hum
%
Delta-T
°C
Wind Press
QNH
hPa
Press
MSL
hPa
Rain since
9am
mm
Dir  Spd
km/h
Gust
km/h
Spd
kts
Gust
kts
22/11:50pm 18.0 15.5 9.7 58 4.5 NNW 13 17 7 9 - - 0.0
22/11:40pm 18.5 15.1 9.2 54 5.0 NW 17 24 9 13 - - 0.0
22/11:30pm 18.5 15.7 8.6 52 5.3 NNW 13 19 7 10 - - 0.0
22/11:20pm 18.1 15.6 8.4 53 5.2 NW 11 17 6 9 - - 0.0
22/11:10pm 17.8 16.4 8.9 56 4.8 NW 6 13 3 7 - - 0.0
22/11:00pm 18.7 16.4 9.0 53 5.2 NNW 11 11 6 6 - - 0.0
22/10:50pm 19.0 16.4 7.8 48 5.9 NNW 11 15 6 8 - - 0.0
22/10:40pm 19.0 15.6 7.7 48 6.0 NNW 15 20 8 11 - - 0.0
22/10:30pm 18.9 15.5 7.7 48 5.9 NNW 15 22 8 12 - - 0.0
22/10:20pm 19.0 16.0 7.8 48 5.9 NNW 13 19 7 10 - - 0.0
22/10:10pm 19.0 15.6 7.7 48 6.0 NNW 15 20 8 11 - - 0.0
22/10:00pm 19.0 14.8 7.5 47 6.0 NNW 19 20 10 11 - - 0.0
22/09:50pm 18.8 15.3 7.4 47 6.0 NNW 15 17 8 9 - - 0.0
22/09:40pm 18.7 15.3 7.6 48 5.8 NNW 15 19 8 10 - - 0.0
22/09:30pm 18.7 15.0 8.1 50 5.6 NNW 17 20 9 11 - - 0.0
22/09:20pm 18.6 15.9 9.1 54 5.1 NNW 13 19 7 10 - - 0.0
22/09:10pm 18.4 15.8 9.5 56 4.8 NNW 13 19 7 10 - - 0.0
22/09:00pm 18.4 16.3 9.7 57 4.7 NNW 11 17 6 9 - - 0.0
22/08:50pm 18.4 17.2 10.2 59 4.5 NNW 7 11 4 6 - - 0.0
22/08:40pm 19.1 17.5 10.1 56 5.0 NNW 9 13 5 7 - - 0.0
22/08:30pm 19.2 17.8 9.7 54 5.2 NNW 7 9 4 5 - - 0.0
22/08:20pm 19.5 17.7 9.4 52 5.5 NNW 9 13 5 7 - - 0.0
22/08:10pm 19.8 17.9 9.1 50 5.8 NNW 9 11 5 6 - - 0.0
22/08:00pm 20.1 17.7 8.8 48 6.1 NNW 11 15 6 8 - - 0.0
22/07:50pm 20.2 17.7 8.4 46 6.3 NNW 11 17 6 9 - - 0.0
22/07:40pm 20.4 17.9 8.1 45 6.6 NNW 11 17 6 9 - - 0.0
22/07:30pm 20.7 18.1 7.6 42 7.0 NNW 11 15 6 8 - - 0.0
22/07:20pm 20.8 18.3 8.1 44 6.8 NNW 11 15 6 8 - - 0.0
22/07:10pm 20.7 17.5 8.4 45 6.6 NNW 15 19 8 10 - - 0.0
22/07:00pm 21.0 18.2 8.5 44 6.8 N 13 17 7 9 - - 0.0
22/06:50pm 21.3 18.8 8.2 43 7.1 NNW 11 15 6 8 - - 0.0
22/06:40pm 21.4 18.2 8.5 43 7.0 NNW 15 20 8 11 - - 0.0
22/06:30pm 21.6 18.0 8.3 42 7.2 NNW 17 22 9 12 - - 0.0
22/06:20pm 22.0 18.4 8.2 41 7.5 NNW 17 22 9 12 - - 0.0
22/06:10pm 22.4 18.4 8.2 40 7.7 NNW 19 26 10 14 - - 0.0
22/06:00pm 22.6 19.4 8.4 40 7.7 NNW 15 17 8 9 - - 0.0
22/05:50pm 22.3 19.5 8.7 41 7.4 NNW 13 15 7 8 - - 0.0
22/05:40pm 22.3 19.2 9.0 42 7.3 NNW 15 19 8 10 - - 0.0
22/05:30pm 22.0 19.0 9.1 43 7.1 NNW 15 19 8 10 - - 0.0
22/05:20pm 22.1 18.6 8.7 42 7.3 NNW 17 28 9 15 - - 0.0
22/05:10pm 22.3 19.6 9.0 42 7.3 NNW 13 19 7 10 - - 0.0
22/05:00pm 22.4 19.8 9.3 43 7.2 NNW 13 19 7 10 - - 0.0
22/04:50pm 22.7 19.7 9.1 42 7.5 NNW 15 19 8 10 - - 0.0
22/04:40pm 23.7 20.7 9.1 39 8.1 NNW 15 20 8 11 - - 0.0
22/04:30pm 23.4 20.8 9.4 41 7.8 NNW 13 19 7 10 - - 0.0
22/04:20pm 23.2 20.5 8.9 40 7.9 NNW 13 19 7 10 - - 0.0
22/04:10pm 22.9 19.8 9.0 41 7.7 NNW 15 20 8 11 - - 0.0
22/04:00pm 22.8 20.4 10.1 44 7.1 N 13 15 7 8 - - 0.0
22/03:50pm 22.4 19.6 10.1 45 6.9 N 15 24 8 13 - - 0.0
22/03:40pm 22.9 20.0 9.6 42 7.4 N 15 22 8 12 - - 0.0
22/03:30pm 22.8 20.4 10.0 44 7.2 N 13 17 7 9 - - 0.0
22/03:20pm 22.9 20.5 9.9 43 7.3 NNW 13 19 7 10 - - 0.0
22/03:10pm 24.0 22.0 10.3 42 7.8 NNW 11 20 6 11 - - 0.0
22/03:00pm 23.7 21.0 10.4 43 7.6 NNW 15 20 8 11 - - 0.0
22/02:50pm 23.8 21.5 10.6 43 7.5 N 13 17 7 9 - - 0.0
22/02:40pm 23.9 21.1 10.0 41 7.8 NNW 15 22 8 12 - - 0.0
22/02:30pm 23.3 21.3 10.2 43 7.4 N 11 19 6 10 - - 0.0
22/02:20pm 22.2 20.8 10.9 48 6.4 NNW 9 15 5 8 - - 0.0
22/02:10pm 22.0 20.0 11.5 51 6.0 NNW 13 19 7 10 - - 0.0
22/02:00pm 22.2 18.6 9.7 45 7.0 NW 19 24 10 13 - - 0.0
22/01:50pm 22.3 19.4 10.9 48 6.5 NNW 17 24 9 13 - - 0.0
22/01:40pm 21.4 20.1 11.2 52 5.8 N 9 11 5 6 - - 0.0
22/01:30pm 21.2 19.6 11.6 54 5.5 NNW 11 19 6 10 - - 0.0
22/01:20pm 21.7 20.5 11.6 52 5.8 NNW 9 13 5 7 - - 0.0
22/01:10pm 20.7 19.5 11.6 56 5.2 NNW 9 13 5 7 - - 0.0
22/01:00pm 19.9 18.2 11.2 57 4.9 NNW 11 17 6 9 - - 0.0
22/12:50pm 19.5 18.3 11.7 60 4.4 NNW 9 15 5 8 - - 0.0
22/12:40pm 18.9 17.5 10.9 59 4.5 N 9 13 5 7 - - 0.0
22/12:30pm 17.8 15.9 10.6 62 4.0 NNW 11 17 6 9 - - 0.0
22/12:20pm 17.7 15.9 11.0 65 3.7 N 11 17 6 9 - - 0.0
22/12:10pm 18.0 16.2 10.9 63 4.0 NNW 11 15 6 8 - - 0.0
22/12:00pm 18.8 17.0 10.7 59 4.5 NNW 11 15 6 8 - - 0.0
22/11:50am 18.8 17.5 11.3 61 4.2 N 9 13 5 7 - - 0.0
22/11:40am 19.5 17.7 10.7 56 4.9 NNW 11 19 6 10 - - 0.0
22/11:30am 19.8 17.5 10.4 54 5.2 NNW 13 20 7 11 - - 0.0
22/11:20am 18.6 15.4 10.1 57 4.7 NNW 17 20 9 11 - - 0.0
22/11:10am 18.1 14.4 9.5 57 4.7 NNW 19 26 10 14 - - 0.0
22/11:00am 18.4 15.3 10.3 59 4.5 NNW 17 19 9 10 - - 0.0
22/10:50am 18.1 14.6 8.9 55 4.9 NNW 17 20 9 11 - - 0.0
22/10:40am 17.7 14.3 7.6 51 5.3 NNW 15 19 8 10 - - 0.0
22/10:30am 16.8 13.8 7.6 54 4.8 N 13 17 7 9 - - 0.0
22/10:20am 16.3 13.8 6.7 53 4.9 NNW 9 11 5 6 - - 0.0
22/10:10am 15.6 13.0 7.6 59 4.1 NNW 11 15 6 8 - - 0.0
22/10:00am 15.4 12.7 7.5 59 4.1 NNW 11 13 6 7 - - 1.6
22/09:50am 14.9 12.8 8.1 64 3.5 NNW 9 11 5 6 - - 1.6
22/09:40am 14.3 11.4 6.5 59 3.9 NNW 11 15 6 8 - - 1.6
22/09:30am 14.1 11.5 6.0 58 4.0 NNW 9 11 5 6 - - 1.6
22/09:20am 14.3 12.0 5.7 56 4.2 N 7 9 4 5 - - 1.6
22/09:10am 14.3 12.1 6.3 58 4.0 N 7 11 4 6 - - 1.6
22/09:00am 14.2 11.8 5.3 55 4.3 NNW 7 17 4 9 - - 1.6
22/08:50am 14.3 11.8 4.6 52 4.7 N 7 11 4 6 - - 1.6
22/08:40am 14.1 11.6 4.7 53 4.5 N 7 11 4 6 - - 1.6
22/08:30am 14.0 11.0 4.1 51 4.7 N 9 13 5 7 - - 1.6
22/08:20am 14.6 11.7 4.7 51 4.8 N 9 11 5 6 - - 1.6
22/08:10am 14.0 11.5 4.9 54 4.4 N 7 9 4 5 - - 1.6
22/08:00am 13.7 11.8 6.7 62 3.5 N 6 9 3 5 - - 1.6
22/07:50am 13.9 10.9 1.8 44 5.5 NW 7 9 4 5 - - 1.6
22/07:40am 13.8 10.7 3.6 50 4.8 NW 9 15 5 8 - - 1.6
22/07:30am 13.6 11.1 5.0 56 4.1 NNW 7 11 4 6 - - 1.6
22/07:20am 12.5 9.4 5.6 63 3.3 NW 11 15 6 8 - - 1.6
22/07:10am 12.1 8.9 6.7 69 2.7 NNW 13 17 7 9 - - 1.6
22/07:00am 11.9 9.3 6.2 68 2.8 NNW 9 11 5 6 - - 1.6
22/06:50am 11.3 8.7 6.2 71 2.5 NNW 9 11 5 6 - - 1.6
22/06:40am 11.0 8.0 6.0 71 2.4 NNW 11 15 6 8 - - 1.6
22/06:30am 10.6 7.3 6.2 74 2.1 NW 13 15 7 8 - - 1.6
22/06:20am 9.9 7.3 6.3 78 1.7 NNW 9 15 5 8 - - 1.6
22/06:10am 8.9 6.9 7.0 88 0.9 NW 7 11 4 6 - - 1.6
22/06:00am 9.4 7.7 8.5 94 0.5 WNW 7 11 4 6 - - 1.6
22/05:50am 9.7 7.5 8.0 89 0.8 NW 9 13 5 7 - - 1.6
22/05:40am 9.7 6.8 8.3 91 0.7 NW 13 15 7 8 - - 1.6
22/05:30am 9.8 6.6 8.5 92 0.7 NW 15 17 8 9 - - 1.6
22/05:20am 9.9 6.8 9.0 94 0.5 NW 15 17 8 9 - - 1.6
22/05:10am 10.1 6.8 9.5 96 0.3 NW 17 19 9 10 - - 1.6
22/05:00am 10.2 7.5 10.2 100 0.0 NW 15 20 8 11 - - 1.6
22/04:50am 10.1 8.1 10.1 100 0.0 NNW 11 15 6 8 - - 1.6
22/04:40am 10.0 9.3 10.0 100 0.0 NNW 4 7 2 4 - - 1.6
22/04:30am 10.2 9.9 10.2 100 0.0 N 2 4 1 2 - - 1.6
22/04:20am 10.4 9.8 10.4 100 0.0 NW 4 6 2 3 - - 1.6
22/04:10am 10.4 9.4 10.4 100 0.0 E 6 7 3 4 - - 1.6
22/04:00am 10.6 10.1 10.6 100 0.0 ENE 4 7 2 4 - - 1.6
22/03:50am 10.8 10.3 10.8 100 0.0 NNE 4 4 2 2 - - 1.6
22/03:40am 10.8 10.3 10.8 100 0.0 NNW 4 6 2 3 - - 1.6
22/03:30am 10.9 10.4 10.9 100 0.0 NNW 4 6 2 3 - - 1.6
22/03:20am 11.0 10.6 11.0 100 0.0 NNW 4 7 2 4 - - 1.6
22/03:10am 11.0 10.6 11.0 100 0.0 NNW 4 7 2 4 - - 1.6
22/03:00am 11.1 10.7 11.1 100 0.0 NNW 4 9 2 5 - - 1.6
22/02:50am 11.1 10.3 11.1 100 0.0 NNW 6 7 3 4 - - 1.6
22/02:40am 11.2 10.8 11.2 100 0.0 N 4 7 2 4 - - 1.6
22/02:30am 11.2 10.4 11.2 100 0.0 NNW 6 7 3 4 - - 1.6
22/02:20am 11.3 11.0 11.3 100 0.0 N 4 6 2 3 - - 1.6
22/02:10am 11.3 11.0 11.3 100 0.0 N 4 6 2 3 - - 1.6
22/02:00am 11.3 11.3 11.3 100 0.0 NNW 2 4 1 2 - - 1.6
22/01:50am 11.3 11.3 11.3 100 0.0 N 2 4 1 2 - - 1.6
22/01:40am 11.3 11.3 11.3 100 0.0 NNW 2 4 1 2 - - 1.6
22/01:30am 11.2 11.2 11.2 100 0.0 N 2 4 1 2 - - 1.6
22/01:20am 11.2 11.2 11.2 100 0.0 NNE 2 4 1 2 - - 1.6
22/01:10am 11.2 11.6 11.2 100 0.0 CALM 0 4 0 2 - - 1.4
22/01:00am 11.2 11.6 11.2 100 0.0 CALM 0 0 0 0 - - 1.4
22/12:50am 11.2 11.6 11.2 100 0.0 CALM 0 2 0 1 - - 1.4
22/12:40am 11.2 11.6 11.2 100 0.0 CALM 0 2 0 1 - - 1.4
22/12:30am 11.2 11.6 11.2 100 0.0 CALM 0 4 0 2 - - 1.4
22/12:20am 11.3 11.7 11.3 100 0.0 CALM 0 2 0 1 - - 1.4
22/12:10am 11.3 11.7 11.3 100 0.0 CALM 0 2 0 1 - - 1.4
22/12:00am 11.3 11.7 11.3 100 0.0 CALM 0 2 0 1 - - 1.4
 
Date/Time
EDT
Temp
°C
App
Temp
°C
Dew
Point
°C
Rel
Hum
%
Delta-T
°C
Wind Press
QNH
hPa
Press
MSL
hPa
Rain since
9am
mm
Dir  Spd
km/h
Gust
km/h
Spd
kts
Gust
kts
21/11:50pm 11.3 11.7 11.3 100 0.0 CALM 0 0 0 0 - - 1.4
21/11:40pm 11.2 11.6 11.2 100 0.0 CALM 0 2 0 1 - - 1.2
21/11:30pm 11.2 11.6 11.2 100 0.0 CALM 0 4 0 2 - - 1.2
21/11:20pm 11.2 11.2 11.2 100 0.0 N 2 4 1 2 - - 1.0
21/11:10pm 11.3 11.3 11.3 100 0.0 NNW 2 4 1 2 - - 1.0
21/11:00pm 11.3 11.3 11.3 100 0.0 NNW 2 4 1 2 - - 0.8
21/10:50pm 11.3 11.7 11.3 100 0.0 CALM 0 0 0 0 - - 0.6
21/10:40pm 11.3 11.7 11.3 100 0.0 CALM 0 4 0 2 - - 0.6
21/10:30pm 11.3 11.7 11.3 100 0.0 CALM 0 2 0 1 - - 0.4
21/10:20pm 11.3 11.7 11.3 100 0.0 CALM 0 2 0 1 - - 0.2
21/10:10pm 11.4 11.8 11.3 99 0.1 CALM 0 2 0 1 - - 0.2
21/10:00pm 11.3 11.7 11.3 100 0.0 CALM 0 2 0 1 - - 0.2
21/09:50pm 11.4 11.4 11.3 99 0.1 NNE 2 4 1 2 - - 0.2
21/09:40pm 11.4 11.8 11.4 100 0.0 CALM 0 2 0 1 - - 0.2
21/09:30pm 11.3 11.3 11.3 100 0.0 NNE 2 4 1 2 - - 0.0
21/09:20pm 11.3 11.3 11.3 100 0.0 NW 2 6 1 3 - - 0.0
21/09:10pm 11.3 11.3 11.3 100 0.0 N 2 2 1 1 - - 0.0
21/09:00pm 11.3 11.7 11.3 100 0.0 CALM 0 2 0 1 - - 0.0
21/08:50pm 11.3 11.3 11.3 100 0.0 N 2 4 1 2 - - 0.0
21/08:40pm 11.3 11.3 11.3 100 0.0 NNW 2 4 1 2 - - 0.0
21/08:30pm 11.3 11.3 11.3 100 0.0 ENE 2 7 1 4 - - 0.0
21/08:20pm 11.3 11.3 11.3 100 0.0 NE 2 4 1 2 - - 0.0
21/08:10pm 11.3 11.0 11.3 100 0.0 NNE 4 6 2 3 - - 0.0
21/08:00pm 11.4 11.5 11.4 100 0.0 NNE 2 4 1 2 - - 0.0
21/07:50pm 11.4 11.1 11.4 100 0.0 NNE 4 9 2 5 - - 0.0
21/07:40pm 11.4 11.5 11.4 100 0.0 E 2 2 1 1 - - 0.0
21/07:30pm 11.4 11.5 11.4 100 0.0 NNE 2 4 1 2 - - 0.0
21/07:20pm 11.4 11.5 11.4 100 0.0 NNE 2 4 1 2 - - 0.0
21/07:10pm 11.4 11.1 11.4 100 0.0 N 4 6 2 3 - - 0.0
21/07:00pm 11.5 11.6 11.5 100 0.0 N 2 6 1 3 - - 0.0
21/06:50pm 11.5 11.2 11.5 100 0.0 ENE 4 6 2 3 - - 0.0
21/06:40pm 11.6 11.3 11.6 100 0.0 ENE 4 4 2 2 - - 0.0
21/06:30pm 11.6 11.7 11.6 100 0.0 ENE 2 6 1 3 - - 0.0
21/06:20pm 11.6 11.0 11.6 100 0.0 N 6 7 3 4 - - 0.0
21/06:10pm 11.7 11.4 11.6 99 0.1 NNE 4 6 2 3 - - 0.0
21/06:00pm 11.7 11.4 11.5 99 0.1 NNE 4 4 2 2 - - 0.0
21/05:50pm 11.6 11.3 11.5 99 0.1 NNE 4 6 2 3 - - 0.0
21/05:40pm 11.7 11.4 11.4 98 0.2 NNE 4 6 2 3 - - 0.0
21/05:30pm 11.8 11.5 11.3 97 0.3 NE 4 6 2 3 - - 0.0
21/05:20pm 11.9 11.2 11.3 96 0.3 ENE 6 7 3 4 - - 0.0
21/05:10pm 12.0 11.2 11.1 94 0.5 NNE 6 9 3 5 - - 0.0
21/05:00pm 12.1 11.3 11.1 94 0.5 NNE 6 6 3 3 - - 0.0
21/04:50pm 12.3 11.5 11.2 93 0.6 NNE 6 7 3 4 - - 0.0
21/04:40pm 12.6 11.8 11.1 91 0.8 ENE 6 9 3 5 - - 0.0
21/04:30pm 12.8 12.0 11.2 90 0.9 ENE 6 9 3 5 - - 0.0
21/04:20pm 13.4 12.5 11.4 88 1.1 NE 7 7 4 4 - - 0.0
21/04:10pm 14.2 13.6 11.7 85 1.4 NNE 6 7 3 4 - - 0.0
21/04:00pm 15.0 14.4 11.8 81 1.8 NNE 6 9 3 5 - - 0.0
21/03:50pm 15.2 14.5 12.0 81 1.8 N 7 9 4 5 - - 0.0
21/03:40pm 15.0 14.4 11.6 80 1.9 N 6 13 3 7 - - 0.0
21/03:30pm 15.2 14.5 11.5 78 2.1 N 6 7 3 4 - - 0.0
21/03:20pm 15.0 14.3 11.5 79 1.9 NE 6 9 3 5 - - 0.0
21/03:00pm 15.2 14.3 11.2 77 2.2 NNE 7 7 4 4 - - 0.0
21/02:50pm 15.2 14.5 11.3 77 2.2 NNE 6 7 3 4 - - 0.0
21/02:40pm 15.4 14.5 11.4 77 2.2 ENE 7 11 4 6 - - 0.0
21/02:30pm 16.3 15.1 11.6 74 2.6 ENE 9 15 5 8 - - 0.0
21/02:20pm 17.5 16.3 11.7 69 3.3 NE 9 13 5 7 - - 0.0
21/02:10pm 18.0 17.3 12.1 68 3.4 NE 7 13 4 7 - - 0.0
21/02:00pm 17.4 16.2 11.7 69 3.2 ENE 9 11 5 6 - - 0.0
21/01:50pm 17.2 15.7 10.4 64 3.7 E 9 13 5 7 - - 0.0
21/01:40pm 16.9 15.8 10.8 67 3.4 ENE 7 9 4 5 - - 0.0
21/01:30pm 16.7 15.6 10.1 65 3.6 NE 6 9 3 5 - - 0.0
21/01:20pm 16.5 15.1 9.6 63 3.7 NNE 7 9 4 5 - - 0.0
21/01:10pm 17.1 15.8 9.2 59 4.2 NNE 6 7 3 4 - - 0.0
21/01:00pm 16.8 15.8 8.9 59 4.2 NE 4 7 2 4 - - 0.0
21/12:50pm 16.2 15.3 9.1 63 3.8 N 4 6 2 3 - - 0.0
21/12:40pm 16.5 15.6 9.3 62 3.9 NNW 4 6 2 3 - - 0.0
21/12:30pm 16.8 15.3 9.0 60 4.2 E 7 13 4 7 - - 0.0
21/12:20pm 16.3 15.3 8.8 61 4.0 ESE 4 7 2 4 - - 0.0
21/12:10pm 15.7 14.4 9.1 65 3.5 ESE 6 7 3 4 - - 0.0
21/12:00pm 15.7 14.3 9.0 64 3.6 E 6 9 3 5 - - 0.0
21/11:50am 16.3 14.9 9.0 62 3.9 E 6 11 3 6 - - 0.0
21/11:40am 15.8 14.4 8.9 63 3.7 ESE 6 9 3 5 - - 0.0
21/11:30am 15.8 14.4 9.0 64 3.6 NE 6 9 3 5 - - 0.0
21/11:20am 15.6 14.6 9.0 65 3.5 N 4 6 2 3 - - 0.0
21/11:00am 16.0 14.5 8.5 61 3.9 NNE 6 9 3 5 - - 0.0
21/10:50am 14.6 13.5 8.5 67 3.2 SE 4 7 2 4 - - 0.0
21/10:40am 14.0 13.2 8.3 68 2.9 SSE 2 4 1 2 - - 0.0
21/10:30am 13.7 12.6 8.6 71 2.6 ESE 4 6 2 3 - - 0.0
21/10:20am 13.6 12.1 8.4 71 2.7 SE 6 7 3 4 - - 0.0
21/10:10am 13.6 12.2 8.7 72 2.5 SE 6 7 3 4 - - 0.0
21/10:00am 13.4 11.9 8.5 72 2.5 SE 6 7 3 4 - - 0.0
21/09:50am 12.9 12.2 8.6 75 2.2 ESE 2 6 1 3 - - 0.0
21/09:40am 12.7 12.4 8.7 76 2.1 CALM 0 2 0 1 - - 0.0
21/09:30am 12.3 10.9 8.7 79 1.9 SSE 6 6 3 3 - - 0.0
21/09:20am 12.3 10.9 8.8 79 1.8 ESE 6 7 3 4 - - 0.0
21/09:10am 12.2 10.8 9.0 81 1.7 ESE 6 7 3 4 - - 0.0
21/09:00am 12.0 11.0 8.9 81 1.6 ESE 4 7 2 4 - - 0.0
21/08:50am 11.3 9.8 8.6 83 1.4 SE 6 7 3 4 - - 0.0
21/08:40am 11.1 9.4 8.5 84 1.3 SSE 7 9 4 5 - - 0.0
21/08:30am 11.0 9.6 8.7 86 1.2 SE 6 7 3 4 - - 0.0
21/08:20am 10.9 9.4 8.4 84 1.3 SSE 6 7 3 4 - - 0.0
21/08:10am 10.8 9.3 8.4 85 1.2 SE 6 9 3 5 - - 0.0
21/08:00am 10.4 8.9 8.4 87 1.0 SE 6 9 3 5 - - 0.0
21/07:50am 10.4 8.7 8.5 88 1.0 SSE 7 9 4 5 - - 0.0
21/07:40am 10.4 8.7 8.2 86 1.1 SE 7 9 4 5 - - 0.0
21/07:30am 10.5 8.7 7.9 84 1.3 SE 7 9 4 5 - - 0.0
21/07:20am 10.5 9.3 8.0 84 1.3 SSE 4 7 2 4 - - 0.0
21/07:10am 10.7 9.4 7.7 82 1.5 SE 4 9 2 5 - - 0.0
21/07:00am 10.6 9.5 8.5 87 1.1 ENE 4 6 2 3 - - 0.0
21/06:50am 10.8 9.7 8.6 86 1.1 NE 4 6 2 3 - - 0.0
21/06:40am 11.0 9.6 7.1 77 1.9 ESE 4 7 2 4 - - 0.0
21/06:30am 10.8 8.9 6.7 76 2.0 SE 6 7 3 4 - - 0.0
21/06:20am 10.3 8.3 6.9 79 1.7 SE 7 7 4 4 - - 0.0
21/06:10am 9.8 7.7 6.8 81 1.5 SSE 7 9 4 5 - - 0.0
21/06:00am 9.7 7.9 7.0 83 1.3 SSE 6 7 3 4 - - 0.0
21/05:50am 9.4 8.7 8.7 95 0.4 SSW 2 6 1 3 - - 0.0
21/05:40am 9.7 8.6 8.6 93 0.6 ENE 4 9 2 5 - - 0.0
21/05:30am 9.9 8.7 8.0 88 0.9 SSE 4 7 2 4 - - 0.0
21/05:20am 9.9 8.7 8.0 88 0.9 SSE 4 7 2 4 - - 0.0
21/05:10am 9.9 8.3 7.8 87 1.0 SSE 6 7 3 4 - - 0.0
21/05:00am 9.7 8.2 8.3 91 0.7 SE 6 9 3 5 - - 0.0
21/04:50am 9.7 7.8 8.9 95 0.4 SSE 9 13 5 7 - - 0.0
21/04:40am 9.7 7.8 9.0 95 0.4 SSE 9 13 5 7 - - 0.0
21/04:30am 9.9 8.0 9.1 95 0.4 SSE 9 11 5 6 - - 0.0
21/04:20am 10.0 8.1 9.1 94 0.5 SSE 9 13 5 7 - - 0.0
21/04:10am 10.1 8.2 9.1 93 0.5 SSE 9 13 5 7 - - 0.0
21/04:00am 10.2 8.3 9.0 92 0.6 SSE 9 11 5 6 - - 0.0
21/03:50am 10.2 8.7 9.0 92 0.6 SSE 7 13 4 7 - - 0.0
21/03:40am 10.2 8.3 9.0 92 0.6 SSE 9 11 5 6 - - 0.0
21/03:30am 10.2 8.3 9.0 92 0.6 SSE 9 11 5 6 - - 0.0
21/03:20am 10.1 8.6 9.0 93 0.6 SSE 7 9 4 5 - - 0.0
21/03:10am 10.0 8.1 8.9 93 0.6 SSE 9 13 5 7 - - 0.0
21/03:00am 10.0 8.1 9.0 93 0.5 SSE 9 11 5 6 - - 0.0
21/02:50am 10.1 8.6 9.0 93 0.6 SSE 7 11 4 6 - - 0.0
21/02:40am 10.1 8.2 9.0 93 0.6 SSE 9 9 5 5 - - 0.0
21/02:30am 10.2 8.7 9.0 92 0.6 SSE 7 9 4 5 - - 0.0
21/02:20am 10.3 8.9 9.0 92 0.7 SSE 6 9 3 5 - - 0.0
21/02:10am 10.5 9.0 9.0 90 0.8 SSE 7 9 4 5 - - 0.0
21/02:00am 10.5 9.0 9.0 90 0.8 SSE 7 9 4 5 - - 0.0
21/01:50am 10.6 9.3 9.3 92 0.7 SSE 6 7 3 4 - - 0.0
21/01:40am 10.6 9.2 9.5 93 0.6 SSE 7 9 4 5 - - 0.0
21/01:30am 10.7 9.3 9.7 93 0.5 SSE 7 9 4 5 - - 0.0
21/01:20am 10.7 9.0 9.7 93 0.5 SSE 9 11 5 6 - - 0.0
21/01:10am 10.9 9.8 9.8 93 0.6 SSE 6 7 3 4 - - 0.0
21/01:00am 11.0 10.2 9.5 90 0.8 SSE 4 6 2 3 - - 0.0
21/12:50am 10.9 9.7 9.6 92 0.7 SE 6 7 3 4 - - 0.0
21/12:40am 10.9 10.1 9.6 92 0.7 SSE 4 6 2 3 - - 0.0
21/12:30am 10.9 9.7 9.6 92 0.7 SSE 6 7 3 4 - - 0.0
21/12:20am 10.9 9.7 9.6 92 0.7 SSE 6 7 3 4 - - 0.0
21/12:10am 10.9 9.7 9.6 92 0.7 SSE 6 7 3 4 - - 0.0
21/12:00am 11.0 9.8 9.6 91 0.7 SSE 6 7 3 4 - - 0.0
 
Date/Time
EDT
Temp
°C
App
Temp
°C
Dew
Point
°C
Rel
Hum
%
Delta-T
°C
Wind Press
QNH
hPa
Press
MSL
hPa
Rain since
9am
mm
Dir  Spd
km/h
Gust
km/h
Spd
kts
Gust
kts
20/11:50pm 11.1 9.9 9.5 90 0.8 SSE 6 7 3 4 - - 0.0
20/11:40pm 11.1 9.7 9.5 90 0.8 SSE 7 9 4 5 - - 0.0
20/11:30pm 11.1 9.9 9.5 90 0.8 SSE 6 7 3 4 - - 0.0
20/11:20pm 11.1 9.7 9.5 90 0.8 SSE 7 9 4 5 - - 0.0
20/11:10pm 11.1 9.3 9.5 90 0.8 SSE 9 11 5 6 - - 0.0
20/11:00pm 11.1 9.3 9.4 89 0.9 SSE 9 13 5 7 - - 0.0
20/10:50pm 11.1 9.3 9.4 89 0.9 SSE 9 11 5 6 - - 0.0
20/10:40pm 11.1 9.3 9.3 89 0.9 SSE 9 11 5 6 - - 0.0
20/10:30pm 11.0 9.1 9.2 89 0.9 S 9 13 5 7 - - 0.0
20/10:20pm 11.0 8.8 9.2 89 0.9 S 11 13 6 7 - - 0.0
20/10:10pm 11.0 8.8 9.2 89 0.9 SSE 11 15 6 8 - - 0.0
20/10:00pm 11.0 9.1 9.1 88 1.0 SSE 9 15 5 8 - - 0.0
20/09:50pm 11.0 9.1 9.1 88 1.0 SSE 9 11 5 6 - - 0.0
20/09:40pm 11.2 9.3 9.2 87 1.0 SSE 9 13 5 7 - - 0.0
20/09:30pm 11.3 9.5 9.5 89 0.9 SSE 9 11 5 6 - - 0.0
20/09:20pm 11.5 9.7 9.6 88 1.0 S 9 11 5 6 - - 0.0
20/09:10pm 11.6 9.9 9.7 88 1.0 S 9 11 5 6 - - 0.0
20/09:00pm 11.7 10.0 9.7 87 1.0 SSE 9 11 5 6 - - 0.0
20/08:50pm 11.8 10.1 9.8 87 1.1 SSE 9 13 5 7 - - 0.0
20/08:40pm 11.9 10.2 9.8 87 1.1 SSE 9 9 5 5 - - 0.0
20/08:30pm 11.9 10.2 9.9 87 1.1 SSE 9 13 5 7 - - 0.0
20/08:20pm 11.9 10.2 9.9 87 1.1 S 9 11 5 6 - - 0.0
20/08:10pm 12.0 10.3 10.0 87 1.1 S 9 11 5 6 - - 0.0
20/08:00pm 12.0 10.4 10.1 88 1.0 SSE 9 13 5 7 - - 0.0
20/07:50pm 12.1 10.5 10.1 87 1.1 SSE 9 11 5 6 - - 0.0
20/07:40pm 12.0 10.3 10.0 87 1.1 SSE 9 11 5 6 - - 0.0
20/07:30pm 12.1 10.1 10.1 87 1.1 SSE 11 13 6 7 - - 0.0
20/07:20pm 12.1 10.1 10.1 87 1.1 SSE 11 13 6 7 - - 0.0
20/07:10pm 12.1 10.1 10.2 88 1.0 SSE 11 13 6 7 - - 0.0
20/07:00pm 12.3 10.3 10.3 87 1.1 SSE 11 13 6 7 - - 0.0
20/06:50pm 12.8 10.9 10.4 85 1.3 SSE 11 15 6 8 - - 0.0
20/06:40pm 13.3 11.4 10.5 83 1.5 SSE 11 13 6 7 - - 0.0
20/06:30pm 13.5 11.6 10.5 82 1.6 SSE 11 15 6 8 - - 0.0
20/06:20pm 13.6 11.3 10.4 81 1.7 SSE 13 15 7 8 - - 0.0
20/06:10pm 13.9 12.0 10.6 80 1.8 SSE 11 13 6 7 - - 0.0
20/06:00pm 14.0 12.2 10.7 80 1.8 SSE 11 15 6 8 - - 0.0
20/05:50pm 13.9 12.4 10.6 80 1.8 SSE 9 13 5 7 - - 0.0
20/05:40pm 13.7 11.9 10.7 82 1.6 SSE 11 13 6 7 - - 0.0
20/05:30pm 14.0 12.6 10.8 81 1.7 SSE 9 11 5 6 - - 0.0
20/05:20pm 13.6 12.2 11.0 84 1.4 SSE 9 15 5 8 - - 0.0
20/05:10pm 13.7 12.3 10.9 83 1.5 SSE 9 13 5 7 - - 0.0
20/05:00pm 13.4 12.0 10.9 85 1.4 SSE 9 11 5 6 - - 0.0
20/04:50pm 13.3 11.9 10.8 85 1.4 SSE 9 11 5 6 - - 0.0
20/04:40pm 13.1 11.6 10.7 85 1.3 SSE 9 11 5 6 - - 0.0
20/04:30pm 12.7 10.8 10.6 87 1.1 SSE 11 13 6 7 - - 0.0
20/04:20pm 12.6 10.8 10.8 89 1.0 SSE 11 13 6 7 - - 0.0
20/04:10pm 12.5 10.7 10.7 89 1.0 SSE 11 13 6 7 - - 0.0
20/04:00pm 12.5 11.0 10.7 89 1.0 SSE 9 13 5 7 - - 0.0
20/03:50pm 12.5 11.0 10.7 89 1.0 SSE 9 11 5 6 - - 0.0
20/03:40pm 12.2 10.3 10.5 89 0.9 SSE 11 13 6 7 - - 0.0
20/03:30pm 12.1 10.6 10.5 90 0.9 SSE 9 13 5 7 - - 0.0
20/03:20pm 11.9 10.0 10.5 91 0.7 SSE 11 15 6 8 - - 0.0
20/03:10pm 12.0 10.2 10.7 92 0.7 SSE 11 13 6 7 - - 0.0
20/03:00pm 12.0 10.1 10.6 91 0.7 SSE 11 15 6 8 - - 0.0
20/02:50pm 11.9 10.0 10.4 90 0.8 SSE 11 13 6 7 - - 0.0
20/02:40pm 11.8 10.3 10.5 92 0.7 SSE 9 11 5 6 - - 0.0
20/02:30pm 11.9 10.1 10.7 92 0.6 SSE 11 13 6 7 - - 0.0
20/02:20pm 12.0 10.2 10.7 92 0.7 SSE 11 13 6 7 - - 0.0
20/02:10pm 12.2 10.7 10.6 90 0.9 SSE 9 13 5 7 - - 0.0
20/02:00pm 12.5 10.6 10.6 88 1.0 SSE 11 13 6 7 - - 0.0
20/01:50pm 12.6 11.1 10.7 88 1.0 SSE 9 13 5 7 - - 0.0
20/01:40pm 12.8 11.3 10.5 86 1.2 SSE 9 15 5 8 - - 0.0
20/01:30pm 13.0 11.1 10.6 85 1.3 SSE 11 13 6 7 - - 0.0
20/01:20pm 12.8 10.8 10.3 85 1.3 SSE 11 13 6 7 - - 0.0
20/01:10pm 12.7 11.1 10.1 84 1.4 SSE 9 11 5 6 - - 0.0
20/01:00pm 12.7 10.7 10.1 84 1.4 SSE 11 13 6 7 - - 0.0
20/12:50pm 12.8 10.8 10.1 84 1.4 SSE 11 17 6 9 - - 0.0
20/12:40pm 13.0 11.4 10.1 82 1.5 SSE 9 13 5 7 - - 0.0
20/12:30pm 13.0 11.3 10.0 82 1.6 SSE 9 13 5 7 - - 0.0
20/12:20pm 12.9 10.9 10.0 82 1.5 SSE 11 13 6 7 - - 0.0
20/12:10pm 12.8 10.8 10.0 83 1.5 SSE 11 13 6 7 - - 0.0
20/12:00pm 12.3 10.6 9.9 85 1.3 SSE 9 13 5 7 - - 0.0
20/11:50am 12.2 10.9 9.8 85 1.3 S 7 11 4 6 - - 0.0
20/11:40am 12.1 10.1 10.1 87 1.1 SSE 11 13 6 7 - - 0.0
20/11:30am 12.2 10.6 10.1 87 1.1 SSE 9 13 5 7 - - 0.0
20/11:20am 12.1 10.4 10.0 87 1.1 SSE 9 11 5 6 - - 0.0

Other formats

Comma delimited format used in spreadsheet applications
http://www.bom.gov.au/fwo/IDT60801/IDT60801.99138.axf

JavaScript Object Notation format (JSON) in row-major order
http://www.bom.gov.au/fwo/IDT60801/IDT60801.99138.json

Data quality

Most of these data are generated automatically and are frequently updated. Quality checks on data are not normally performed. It is possible for incorrect values to appear. Refer to information at About Latest Weather Observations and please check the disclaimer before using these data.